Time;durP1;ratioP1;P1;durP2;ratioP2;P2;SDS_P1;SDS_P2;PMS_P1;PMS_P2;Temp;Humidity;BMP_temperature;BMP_pressure;BME280_temperature;BME280_humidity;BME280_pressure;Samples;Min_cycle;Max_cycle;Signal;HPM_P1;HPM_P2
2021/12/31 00:02:07;;;;;;;0.00;0.00;;;12.70;99.90;;;;;;4927665;29;20227;-69
2021/12/31 00:04:34;;;;;;;0.00;0.00;;;12.80;99.90;;;;;;4928281;29;20278;-69
2021/12/31 00:07:01;;;;;;;0.00;0.00;;;12.80;99.90;;;;;;4945228;28;20227;-68
2021/12/31 00:09:28;;;;;;;0.00;0.00;;;12.80;99.90;;;;;;4923422;29;20255;-70
2021/12/31 00:11:56;;;;;;;0.03;0.03;;;12.80;99.90;;;;;;4928319;29;20230;-69
2021/12/31 00:14:25;;;;;;;0.00;0.00;;;12.80;99.90;;;;;;4931620;29;20286;-69
2021/12/31 00:16:51;;;;;;;0.00;0.00;;;12.80;99.90;;;;;;4928407;29;20250;-69
2021/12/31 00:19:19;;;;;;;0.00;0.00;;;12.80;99.90;;;;;;4925657;29;20199;-69
2021/12/31 00:21:48;;;;;;;0.00;0.00;;;12.80;99.90;;;;;;4931080;28;20238;-69
2021/12/31 00:24:15;;;;;;;0.00;0.00;;;12.90;99.90;;;;;;4923301;29;20245;-70
2021/12/31 00:26:43;;;;;;;0.00;0.00;;;12.90;99.90;;;;;;4927782;29;20230;-69
2021/12/31 00:29:10;;;;;;;0.00;0.00;;;12.90;99.90;;;;;;4924488;29;20230;-69
2021/12/31 00:31:38;;;;;;;0.00;0.00;;;12.90;99.90;;;;;;4929458;29;20302;-69
2021/12/31 00:34:05;;;;;;;0.07;0.07;;;12.90;99.90;;;;;;4928444;29;20206;-70
2021/12/31 00:36:39;;;;;;;0.10;0.10;;;12.90;99.90;;;;;;4927728;29;20187;-69
2021/12/31 00:39:06;;;;;;;0.00;0.00;;;12.90;99.90;;;;;;4928603;29;20198;-69
2021/12/31 00:41:33;;;;;;;0.00;0.00;;;12.90;99.90;;;;;;4927204;29;20235;-69
2021/12/31 00:44:00;;;;;;;0.00;0.00;;;12.90;99.90;;;;;;4927389;29;20204;-69
2021/12/31 00:46:29;;;;;;;0.00;0.00;;;13.00;99.90;;;;;;4927542;29;20251;-70
2021/12/31 00:48:58;;;;;;;0.00;0.00;;;13.00;99.90;;;;;;4927515;29;20218;-69
2021/12/31 00:51:25;;;;;;;0.00;0.00;;;13.00;99.90;;;;;;4927266;29;20221;-68
2021/12/31 00:53:52;;;;;;;0.00;0.00;;;13.00;99.90;;;;;;4926075;29;20246;-70
2021/12/31 00:56:19;;;;;;;0.00;0.00;;;13.00;99.90;;;;;;4935866;28;20267;-68
2021/12/31 00:58:46;;;;;;;0.10;0.10;;;13.00;99.90;;;;;;4941580;28;20297;-69
2021/12/31 01:01:18;;;;;;;0.00;0.00;;;13.00;99.90;;;;;;4925925;29;20408;-69
2021/12/31 01:03:45;;;;;;;0.00;0.00;;;13.00;99.90;;;;;;4926129;29;20211;-70
2021/12/31 01:06:13;;;;;;;0.00;0.00;;;13.00;99.90;;;;;;4926904;29;20223;-68
2021/12/31 01:08:41;;;;;;;0.00;0.00;;;13.00;99.90;;;;;;4926519;29;20199;-69
2021/12/31 01:11:08;;;;;;;0.00;0.00;;;13.00;99.90;;;;;;4929298;29;20246;-70
2021/12/31 01:13:47;;;;;;;0.10;0.10;;;13.00;99.90;;;;;;4929875;29;20322;-69
2021/12/31 01:16:15;;;;;;;0.00;0.00;;;13.00;99.90;;;;;;4924947;29;20199;-69
2021/12/31 01:21:31;;;;;;;0.00;0.00;;;13.00;99.90;;;;;;4925379;29;20233;-71
2021/12/31 01:24:00;;;;;;;0.00;0.00;;;13.00;99.90;;;;;;4930545;29;20688;-68
2021/12/31 01:26:27;;;;;;;0.00;0.00;;;13.00;99.90;;;;;;4926813;29;20303;-70
2021/12/31 01:28:54;;;;;;;0.00;0.00;;;13.00;99.90;;;;;;4926631;29;20240;-69
2021/12/31 01:31:23;;;;;;;0.00;0.00;;;13.00;99.90;;;;;;4924221;29;20224;-71
2021/12/31 01:33:51;;;;;;;0.10;0.10;;;13.00;99.90;;;;;;4932143;29;20207;-68
2021/12/31 01:36:18;;;;;;;0.00;0.00;;;13.00;99.90;;;;;;4945424;28;20291;-68
2021/12/31 01:38:46;;;;;;;0.00;0.00;;;13.00;99.90;;;;;;4927673;29;20219;-68
2021/12/31 01:41:13;;;;;;;0.03;0.03;;;13.00;99.90;;;;;;4926464;29;20319;-70
2021/12/31 01:43:40;;;;;;;0.00;0.00;;;13.00;99.90;;;;;;4926831;29;20211;-69
2021/12/31 01:46:11;;;;;;;0.00;0.00;;;13.00;99.90;;;;;;4923865;29;20214;-69
2021/12/31 01:48:58;;;;;;;0.00;0.00;;;13.00;99.90;;;;;;4926595;29;20208;-69
2021/12/31 01:51:25;;;;;;;0.03;0.03;;;13.00;99.90;;;;;;4928609;29;20227;-70
2021/12/31 01:53:54;;;;;;;0.00;0.00;;;13.00;99.90;;;;;;4926768;29;20220;-72
2021/12/31 01:56:23;;;;;;;0.00;0.00;;;13.00;99.90;;;;;;4922355;29;20191;-68
2021/12/31 01:58:55;;;;;;;0.10;0.10;;;12.90;99.90;;;;;;4926037;29;20214;-72
2021/12/31 02:01:23;;;;;;;0.00;0.00;;;12.90;99.90;;;;;;4928009;29;20234;-69
2021/12/31 02:03:51;;;;;;;0.00;0.00;;;12.90;99.90;;;;;;4929991;29;20210;-69
2021/12/31 02:06:18;;;;;;;0.00;0.00;;;12.90;99.90;;;;;;4933715;29;20219;-69
2021/12/31 02:08:46;;;;;;;0.00;0.00;;;12.90;99.90;;;;;;4929759;29;20203;-69
2021/12/31 02:11:17;;;;;;;0.00;0.00;;;12.90;99.90;;;;;;4929719;29;20301;-69
2021/12/31 02:13:44;;;;;;;0.00;0.00;;;12.80;99.90;;;;;;4929904;29;20210;-69
2021/12/31 02:16:11;;;;;;;0.00;0.00;;;12.80;99.90;;;;;;4930571;29;20226;-69
2021/12/31 02:18:38;;;;;;;0.00;0.00;;;12.80;99.90;;;;;;4930583;28;20297;-70
2021/12/31 02:21:10;;;;;;;0.00;0.00;;;12.80;99.90;;;;;;4930350;29;20270;-69
2021/12/31 02:23:43;;;;;;;0.03;0.03;;;12.80;99.90;;;;;;4931897;29;20191;-71
2021/12/31 02:26:10;;;;;;;0.00;0.00;;;12.80;99.90;;;;;;4929349;29;20207;-70
2021/12/31 02:28:38;;;;;;;0.00;0.00;;;12.70;99.90;;;;;;4924652;29;20263;-70
2021/12/31 02:31:05;;;;;;;0.00;0.00;;;12.70;99.90;;;;;;4926882;29;20238;-71
2021/12/31 02:33:33;;;;;;;0.00;0.00;;;12.70;99.90;;;;;;4929640;29;20680;-70
2021/12/31 02:36:03;;;;;;;0.00;0.00;;;12.70;99.90;;;;;;4931924;29;20204;-70
2021/12/31 02:38:31;;;;;;;0.00;0.00;;;12.70;99.90;;;;;;4931212;29;20191;-70
2021/12/31 02:40:58;;;;;;;0.00;0.00;;;12.80;99.90;;;;;;4932606;29;20219;-69
2021/12/31 02:43:25;;;;;;;0.00;0.00;;;12.70;99.90;;;;;;4925017;29;20235;-70
2021/12/31 02:45:52;;;;;;;0.07;0.07;;;12.80;99.90;;;;;;4929285;29;20611;-68
2021/12/31 02:48:25;;;;;;;0.00;0.00;;;12.80;99.90;;;;;;4924311;29;20235;-70
2021/12/31 02:50:54;;;;;;;0.00;0.00;;;12.80;99.90;;;;;;4929047;29;20286;-69
2021/12/31 02:53:25;;;;;;;0.00;0.00;;;12.80;99.90;;;;;;4930719;29;20223;-70
2021/12/31 02:56:00;;;;;;;0.00;0.00;;;12.80;99.90;;;;;;4932414;29;20207;-71
2021/12/31 02:58:28;;;;;;;0.00;0.00;;;12.80;99.90;;;;;;4933644;28;20195;-69
2021/12/31 03:00:55;;;;;;;0.00;0.00;;;12.80;99.90;;;;;;4929562;29;20283;-69
2021/12/31 03:03:23;;;;;;;0.00;0.00;;;12.80;99.90;;;;;;4927497;29;20210;-70
2021/12/31 03:05:53;;;;;;;0.00;0.00;;;12.80;99.90;;;;;;4926730;29;20658;-71
2021/12/31 03:08:22;;;;;;;0.00;0.00;;;12.80;99.90;;;;;;4926242;29;20310;-69
2021/12/31 03:10:50;;;;;;;0.00;0.00;;;12.80;99.90;;;;;;4928996;29;20318;-69
2021/12/31 03:13:18;;;;;;;0.00;0.00;;;12.70;99.90;;;;;;4928346;29;20310;-70
2021/12/31 03:15:45;;;;;;;0.00;0.00;;;12.70;99.90;;;;;;4930158;29;20211;-70
2021/12/31 03:18:12;;;;;;;0.00;0.00;;;12.70;99.90;;;;;;4931120;29;20203;-69
2021/12/31 03:20:43;;;;;;;0.00;0.00;;;12.70;99.90;;;;;;4927368;29;20334;-70
2021/12/31 03:23:11;;;;;;;0.00;0.00;;;12.70;99.90;;;;;;4928652;29;20259;-71
2021/12/31 03:25:38;;;;;;;0.00;0.00;;;12.70;99.90;;;;;;4928551;29;20212;-70
2021/12/31 03:28:06;;;;;;;0.00;0.00;;;12.70;99.90;;;;;;4928709;29;20223;-72
2021/12/31 03:30:34;;;;;;;0.00;0.00;;;12.70;99.90;;;;;;4922159;29;20231;-70
2021/12/31 03:33:01;;;;;;;0.03;0.03;;;12.70;99.90;;;;;;4925937;29;20696;-70
2021/12/31 03:35:28;;;;;;;0.00;0.00;;;12.70;99.90;;;;;;4926949;29;20203;-71
2021/12/31 03:37:55;;;;;;;0.00;0.00;;;12.70;99.90;;;;;;4948432;28;20208;-70
2021/12/31 03:40:23;;;;;;;0.00;0.00;;;12.70;99.90;;;;;;4930890;29;20207;-70
2021/12/31 03:42:51;;;;;;;0.00;0.00;;;12.70;99.90;;;;;;4932621;29;20282;-71
2021/12/31 03:45:18;;;;;;;0.00;0.00;;;12.70;99.90;;;;;;4929429;29;20211;-70
2021/12/31 03:47:46;;;;;;;0.00;0.00;;;12.70;99.90;;;;;;4941798;28;20266;-73
2021/12/31 03:50:13;;;;;;;0.00;0.00;;;12.70;99.90;;;;;;4929740;29;20207;-71
2021/12/31 03:52:41;;;;;;;0.00;0.00;;;12.70;99.90;;;;;;4929880;29;20219;-74
2021/12/31 03:55:10;;;;;;;0.03;0.03;;;12.60;99.90;;;;;;4924843;29;20227;-73
2021/12/31 03:57:37;;;;;;;0.00;0.00;;;12.60;99.90;;;;;;4927649;29;20206;-71
2021/12/31 04:00:05;;;;;;;0.00;0.00;;;12.60;99.90;;;;;;4933781;28;20250;-71
2021/12/31 04:02:32;;;;;;;0.00;0.00;;;12.60;99.90;;;;;;4928780;29;20215;-71
2021/12/31 04:05:00;;;;;;;0.07;0.07;;;12.60;99.90;;;;;;4930262;29;20199;-72
2021/12/31 04:07:27;;;;;;;0.00;0.00;;;12.60;99.90;;;;;;4926796;29;20227;-70
2021/12/31 04:09:54;;;;;;;0.00;0.00;;;12.50;99.90;;;;;;4928438;29;20255;-70
2021/12/31 04:12:21;;;;;;;0.10;0.10;;;12.50;99.90;;;;;;4930037;29;20254;-70
2021/12/31 04:14:48;;;;;;;0.00;0.00;;;12.50;99.90;;;;;;4926913;29;20210;-71
2021/12/31 04:17:15;;;;;;;0.10;0.10;;;12.50;99.90;;;;;;4941706;28;20688;-70
2021/12/31 04:19:42;;;;;;;0.10;0.10;;;12.50;99.90;;;;;;4921992;29;20196;-69
2021/12/31 04:22:12;;;;;;;0.10;0.10;;;12.40;99.90;;;;;;4927529;29;20591;-70
2021/12/31 04:24:53;;;;;;;0.00;0.00;;;12.40;99.90;;;;;;4923071;29;20215;-70
2021/12/31 04:27:22;;;;;;;0.00;0.00;;;12.40;99.90;;;;;;4922337;29;20222;-70
2021/12/31 04:29:53;;;;;;;0.00;0.00;;;12.40;99.90;;;;;;4929186;28;20296;-70
2021/12/31 04:32:23;;;;;;;0.00;0.00;;;12.40;99.90;;;;;;4927329;29;20231;-70
2021/12/31 04:34:50;;;;;;;0.00;0.00;;;12.40;99.90;;;;;;4926750;29;20203;-71
2021/12/31 04:37:18;;;;;;;0.00;0.00;;;12.40;99.90;;;;;;4926089;29;20293;-69
2021/12/31 04:39:45;;;;;;;0.00;0.00;;;12.40;99.90;;;;;;4929778;29;20208;-71
2021/12/31 04:42:12;;;;;;;0.00;0.00;;;12.40;99.90;;;;;;4927098;29;20226;-69
2021/12/31 04:44:39;;;;;;;0.00;0.00;;;12.40;99.90;;;;;;4927621;29;20209;-71
2021/12/31 04:47:06;;;;;;;0.00;0.00;;;12.30;99.90;;;;;;4925993;29;20207;-71
2021/12/31 04:49:33;;;;;;;0.00;0.00;;;12.40;99.90;;;;;;4923606;29;20210;-71
2021/12/31 04:52:00;;;;;;;0.10;0.10;;;12.40;99.90;;;;;;4926653;29;20329;-70
2021/12/31 04:54:29;;;;;;;0.00;0.00;;;12.40;99.90;;;;;;4926827;29;20292;-72
2021/12/31 04:56:58;;;;;;;0.00;0.00;;;12.40;99.90;;;;;;4927993;28;20207;-70
2021/12/31 04:59:25;;;;;;;0.00;0.00;;;12.40;99.90;;;;;;4925407;29;20203;-70
2021/12/31 05:01:52;;;;;;;0.10;0.10;;;12.40;99.90;;;;;;4927024;28;20231;-70
2021/12/31 05:04:19;;;;;;;0.00;0.00;;;12.40;99.90;;;;;;4927412;29;20222;-70
2021/12/31 05:06:48;;;;;;;0.00;0.00;;;12.40;99.90;;;;;;4927629;29;20342;-71
2021/12/31 05:09:15;;;;;;;0.00;0.00;;;12.40;99.90;;;;;;4927424;29;20231;-68
2021/12/31 05:11:44;;;;;;;0.00;0.00;;;12.40;99.90;;;;;;4928918;29;20227;-71
2021/12/31 05:14:10;;;;;;;0.00;0.00;;;12.40;99.90;;;;;;4927896;29;20752;-71
2021/12/31 05:16:37;;;;;;;0.00;0.00;;;12.40;99.90;;;;;;4926992;29;20294;-68
2021/12/31 05:19:05;;;;;;;0.00;0.00;;;12.40;99.90;;;;;;4929254;29;20199;-70
2021/12/31 05:21:33;;;;;;;0.10;0.10;;;12.40;99.90;;;;;;4926750;29;20697;-68
2021/12/31 05:24:00;;;;;;;0.00;0.00;;;12.40;99.90;;;;;;4924996;29;20208;-69
2021/12/31 05:26:28;;;;;;;0.00;0.00;;;12.40;99.90;;;;;;4928432;29;20191;-70
2021/12/31 05:28:56;;;;;;;0.00;0.00;;;12.40;99.90;;;;;;4922372;29;20247;-70
2021/12/31 05:31:23;;;;;;;0.00;0.00;;;12.40;99.90;;;;;;4923330;29;20231;-70
2021/12/31 05:33:50;;;;;;;0.00;0.00;;;12.40;99.90;;;;;;4926565;29;20212;-69
2021/12/31 05:36:17;;;;;;;0.07;0.07;;;12.40;99.90;;;;;;4930081;29;20199;-69
2021/12/31 05:38:44;;;;;;;0.00;0.00;;;12.40;99.90;;;;;;4932465;29;20200;-69
2021/12/31 05:41:11;;;;;;;0.00;0.00;;;12.40;99.90;;;;;;4930617;29;20235;-69
2021/12/31 05:43:38;;;;;;;0.00;0.00;;;12.40;99.90;;;;;;4930098;29;20200;-70
2021/12/31 05:46:07;;;;;;;0.10;0.10;;;12.40;99.90;;;;;;4929294;29;20302;-68
2021/12/31 05:48:33;;;;;;;0.10;0.10;;;12.40;99.90;;;;;;4926523;29;20227;-69
2021/12/31 05:51:00;;;;;;;0.00;0.00;;;12.40;99.90;;;;;;4929881;29;20215;-69
2021/12/31 05:53:27;;;;;;;0.00;0.00;;;12.40;99.90;;;;;;4925072;29;20207;-71
2021/12/31 05:55:54;;;;;;;0.00;0.00;;;12.40;99.90;;;;;;4931455;29;20294;-69
2021/12/31 05:58:21;;;;;;;0.00;0.00;;;12.50;99.90;;;;;;4932146;29;20196;-70
2021/12/31 06:00:48;;;;;;;0.00;0.00;;;12.40;99.90;;;;;;4927502;29;20231;-69
2021/12/31 06:03:17;;;;;;;0.00;0.00;;;12.50;99.90;;;;;;4934550;28;20200;-68
2021/12/31 06:05:44;;;;;;;0.10;0.10;;;12.50;99.90;;;;;;4930784;29;20230;-71
2021/12/31 06:08:11;;;;;;;0.10;0.10;;;12.50;99.90;;;;;;4930352;29;20262;-70
2021/12/31 06:10:40;;;;;;;0.00;0.00;;;12.50;99.90;;;;;;4930095;29;20231;-69
2021/12/31 06:13:08;;;;;;;0.00;0.00;;;12.50;99.90;;;;;;4929746;29;20231;-69
2021/12/31 06:15:35;;;;;;;0.00;0.00;;;12.40;99.90;;;;;;4930109;29;20235;-68
2021/12/31 06:18:02;;;;;;;0.00;0.00;;;12.50;99.90;;;;;;4929956;29;20203;-68
2021/12/31 06:20:30;;;;;;;0.10;0.10;;;12.50;99.90;;;;;;4931522;29;20195;-71
2021/12/31 06:22:58;;;;;;;0.00;0.00;;;12.40;99.90;;;;;;4931209;29;20214;-71
2021/12/31 06:25:26;;;;;;;0.10;0.10;;;12.50;99.90;;;;;;4931425;29;20700;-70
2021/12/31 06:27:53;;;;;;;0.00;0.00;;;12.50;99.90;;;;;;4929529;29;20263;-70
2021/12/31 06:30:20;;;;;;;0.10;0.10;;;12.50;99.90;;;;;;4922881;29;20232;-70
2021/12/31 06:32:46;;;;;;;0.10;0.10;;;12.50;99.90;;;;;;4945776;28;20267;-69
2021/12/31 06:35:13;;;;;;;0.10;0.10;;;12.50;99.90;;;;;;4930510;29;20214;-71
2021/12/31 06:37:41;;;;;;;0.00;0.00;;;12.50;99.90;;;;;;4932580;28;20223;-70
2021/12/31 06:40:11;;;;;;;0.10;0.10;;;12.50;99.90;;;;;;4928954;29;20214;-71
2021/12/31 06:42:38;;;;;;;0.00;0.00;;;12.50;99.90;;;;;;4929684;29;20230;-70
2021/12/31 06:45:06;;;;;;;0.00;0.00;;;12.50;99.90;;;;;;4929493;29;20215;-70
2021/12/31 06:47:33;;;;;;;0.00;0.00;;;12.50;99.90;;;;;;4929047;29;20210;-69
2021/12/31 06:50:00;;;;;;;0.00;0.00;;;12.60;99.90;;;;;;4932553;28;20207;-70
2021/12/31 06:52:27;;;;;;;0.00;0.00;;;12.50;99.90;;;;;;4928905;29;20758;-71
2021/12/31 06:54:55;;;;;;;0.10;0.10;;;12.50;99.90;;;;;;4930646;29;20219;-70
2021/12/31 06:57:24;;;;;;;0.00;0.00;;;12.50;99.90;;;;;;4928865;29;20210;-69
2021/12/31 06:59:51;;;;;;;0.10;0.10;;;12.50;99.90;;;;;;4930582;28;20678;-71
2021/12/31 07:02:18;;;;;;;0.00;0.00;;;12.50;99.90;;;;;;4929439;29;20287;-69
2021/12/31 07:04:44;;;;;;;0.03;0.03;;;12.60;99.90;;;;;;4928627;29;20303;-69
2021/12/31 07:07:11;;;;;;;0.00;0.00;;;12.50;99.90;;;;;;4929378;29;20247;-71
2021/12/31 07:09:38;;;;;;;0.00;0.00;;;12.50;99.90;;;;;;4928624;29;20306;-70
2021/12/31 07:12:08;;;;;;;0.00;0.00;;;12.50;99.90;;;;;;4928989;29;20231;-69
2021/12/31 07:14:34;;;;;;;0.00;0.00;;;12.50;99.90;;;;;;4928409;29;20208;-71
2021/12/31 07:17:01;;;;;;;0.10;0.10;;;12.50;99.90;;;;;;4930296;29;20259;-69
2021/12/31 07:19:28;;;;;;;0.00;0.00;;;12.50;99.90;;;;;;4927359;29;20196;-72
2021/12/31 07:21:55;;;;;;;0.00;0.00;;;12.50;99.90;;;;;;4926905;29;20297;-70
2021/12/31 07:24:22;;;;;;;0.00;0.00;;;12.50;99.90;;;;;;4925341;29;20227;-71
2021/12/31 07:26:49;;;;;;;0.00;0.00;;;12.50;99.90;;;;;;4928836;29;20302;-77
2021/12/31 07:29:18;;;;;;;0.00;0.00;;;12.50;99.90;;;;;;4927143;29;20250;-77
2021/12/31 07:31:45;;;;;;;0.10;0.10;;;12.50;99.90;;;;;;4926368;29;20274;-75
2021/12/31 07:34:12;;;;;;;0.00;0.00;;;12.50;99.90;;;;;;4946897;28;20204;-74
2021/12/31 07:36:39;;;;;;;0.00;0.00;;;12.40;99.90;;;;;;4929635;29;20211;-77
2021/12/31 07:39:08;;;;;;;0.00;0.00;;;12.40;99.90;;;;;;4924585;29;20282;-75
2021/12/31 07:41:35;;;;;;;0.10;0.10;;;12.50;99.90;;;;;;4928924;29;20246;-74
2021/12/31 07:44:02;;;;;;;0.00;0.00;;;12.50;99.90;;;;;;4929244;29;20254;-76
2021/12/31 07:46:30;;;;;;;0.00;0.00;;;12.40;99.90;;;;;;4929562;29;20199;-76
2021/12/31 07:48:57;;;;;;;0.10;0.10;;;12.40;99.90;;;;;;4931751;29;20233;-77
2021/12/31 07:51:24;;;;;;;0.00;0.00;;;12.40;99.90;;;;;;4929249;29;20226;-76
2021/12/31 07:53:51;;;;;;;0.00;0.00;;;12.40;99.90;;;;;;4928573;29;20219;-70
2021/12/31 07:56:19;;;;;;;0.00;0.00;;;12.40;99.90;;;;;;4924360;29;20216;-69
2021/12/31 07:58:47;;;;;;;0.10;0.10;;;12.40;99.90;;;;;;4929837;29;20210;-69
2021/12/31 08:01:16;;;;;;;0.00;0.00;;;12.40;99.90;;;;;;4926889;29;20231;-71
2021/12/31 08:03:45;;;;;;;0.00;0.00;;;12.40;99.90;;;;;;4927773;29;20199;-68
2021/12/31 08:06:12;;;;;;;0.03;0.03;;;12.40;99.90;;;;;;4928969;29;20199;-68
2021/12/31 08:08:39;;;;;;;0.00;0.00;;;12.40;99.90;;;;;;4927953;29;20277;-69
2021/12/31 08:11:06;;;;;;;0.03;0.03;;;12.40;99.90;;;;;;4928172;29;20227;-68
2021/12/31 08:13:33;;;;;;;0.10;0.10;;;12.40;99.90;;;;;;4925404;29;20223;-70
2021/12/31 08:16:00;;;;;;;0.10;0.10;;;12.50;99.90;;;;;;4942922;28;20228;-72
2021/12/31 08:18:27;;;;;;;0.00;0.00;;;12.50;99.90;;;;;;4923568;29;20203;-70
2021/12/31 08:20:56;;;;;;;0.10;0.10;;;12.50;99.90;;;;;;4928278;28;20231;-70
2021/12/31 08:23:22;;;;;;;0.00;0.00;;;12.50;99.90;;;;;;4929661;29;20797;-69
2021/12/31 08:25:50;;;;;;;0.00;0.00;;;12.60;99.90;;;;;;4927508;29;20286;-69
2021/12/31 08:28:16;;;;;;;0.00;0.00;;;12.60;99.90;;;;;;4925321;29;20227;-70
2021/12/31 08:30:43;;;;;;;0.00;0.00;;;12.60;99.90;;;;;;4928828;28;20236;-70
2021/12/31 08:33:10;;;;;;;0.03;0.03;;;12.60;99.90;;;;;;4928009;29;20290;-70
2021/12/31 08:35:37;;;;;;;0.10;0.10;;;12.70;99.90;;;;;;4925193;29;20208;-71
2021/12/31 08:38:05;;;;;;;0.00;0.00;;;12.80;99.90;;;;;;4928054;29;20231;-70
2021/12/31 08:40:32;;;;;;;0.10;0.10;;;12.90;99.90;;;;;;4928092;29;20294;-69
2021/12/31 08:42:59;;;;;;;0.10;0.10;;;13.00;99.90;;;;;;4927469;29;20215;-72
2021/12/31 08:45:29;;;;;;;0.00;0.00;;;13.20;99.90;;;;;;4924449;29;20200;-70
2021/12/31 08:47:57;;;;;;;0.00;0.00;;;13.30;99.90;;;;;;4925381;29;20211;-70
2021/12/31 08:50:24;;;;;;;0.00;0.00;;;13.30;99.90;;;;;;4924523;29;20255;-71
2021/12/31 08:52:52;;;;;;;0.00;0.00;;;13.40;99.90;;;;;;4928924;29;20221;-70
2021/12/31 08:55:21;;;;;;;0.00;0.00;;;13.40;99.90;;;;;;4927660;29;20208;-71
2021/12/31 08:57:49;;;;;;;0.10;0.10;;;13.50;99.90;;;;;;4928885;29;20211;-70
2021/12/31 09:00:16;;;;;;;0.00;0.00;;;13.50;99.90;;;;;;4924773;29;20272;-71
2021/12/31 09:02:45;;;;;;;0.00;0.00;;;13.40;99.90;;;;;;4927616;29;20195;-69
2021/12/31 09:05:12;;;;;;;0.03;0.03;;;13.40;99.90;;;;;;4927477;29;20294;-70
2021/12/31 09:07:39;;;;;;;0.10;0.10;;;13.30;99.90;;;;;;4926985;29;20239;-69
2021/12/31 09:10:08;;;;;;;0.10;0.10;;;13.30;99.90;;;;;;4929436;29;20230;-69
2021/12/31 09:12:36;;;;;;;0.00;0.00;;;13.30;99.90;;;;;;4935029;29;20298;-70
2021/12/31 09:15:04;;;;;;;0.00;0.00;;;13.20;99.90;;;;;;4929254;29;20314;-69
2021/12/31 09:17:31;;;;;;;0.00;0.00;;;13.20;99.90;;;;;;4925143;29;20211;-69
2021/12/31 09:19:58;;;;;;;0.00;0.00;;;13.20;99.90;;;;;;4938161;28;20267;-70
2021/12/31 09:22:25;;;;;;;0.00;0.00;;;13.30;99.90;;;;;;4939312;28;20233;-70
2021/12/31 09:24:52;;;;;;;0.00;0.00;;;13.30;99.90;;;;;;4938672;28;20309;-72
2021/12/31 09:27:18;;;;;;;0.00;0.00;;;13.30;99.90;;;;;;4931082;29;20204;-70
2021/12/31 09:29:47;;;;;;;0.00;0.00;;;13.40;99.90;;;;;;4933898;28;20238;-70
2021/12/31 09:32:13;;;;;;;0.00;0.00;;;13.40;99.90;;;;;;4929626;29;20337;-69
2021/12/31 09:34:43;;;;;;;0.00;0.00;;;13.40;99.90;;;;;;4932014;29;20210;-70
2021/12/31 09:37:10;;;;;;;0.00;0.00;;;13.40;99.90;;;;;;4935095;29;20613;-69
2021/12/31 09:39:37;;;;;;;0.10;0.10;;;13.50;99.90;;;;;;4931368;29;20253;-69
2021/12/31 09:42:05;;;;;;;0.03;0.03;;;13.50;99.90;;;;;;4934386;28;20226;-73
2021/12/31 09:44:33;;;;;;;0.00;0.00;;;13.60;99.90;;;;;;4935330;28;20210;-69
2021/12/31 09:47:09;;;;;;;0.00;0.00;;;13.60;99.90;;;;;;4931839;28;20219;-69
2021/12/31 09:49:39;;;;;;;0.00;0.00;;;13.60;99.90;;;;;;4926523;29;20219;-72
2021/12/31 09:52:10;;;;;;;0.00;0.00;;;13.60;99.90;;;;;;4930242;29;20251;-70
2021/12/31 09:54:42;;;;;;;0.10;0.10;;;13.70;99.90;;;;;;4930248;29;20211;-69
2021/12/31 09:57:14;;;;;;;0.00;0.00;;;13.70;99.90;;;;;;4930747;29;20223;-69
2021/12/31 09:59:41;;;;;;;0.00;0.00;;;13.70;99.90;;;;;;4929675;29;20215;-69
2021/12/31 10:02:10;;;;;;;0.00;0.00;;;13.80;99.90;;;;;;4928262;29;20231;-70
2021/12/31 10:04:53;;;;;;;0.00;0.00;;;13.80;99.90;;;;;;4926616;29;20212;-70
2021/12/31 10:07:21;;;;;;;0.00;0.00;;;13.80;99.90;;;;;;4928515;29;20226;-72
2021/12/31 10:10:05;;;;;;;0.00;0.00;;;13.80;99.90;;;;;;4936452;29;20219;-70
2021/12/31 10:12:47;;;;;;;0.00;0.00;;;13.80;99.90;;;;;;4930998;29;20286;-69
2021/12/31 10:15:16;;;;;;;0.00;0.00;;;13.70;99.90;;;;;;4927298;29;20191;-69
2021/12/31 10:17:46;;;;;;;0.00;0.00;;;13.70;99.90;;;;;;4925406;29;20238;-70
2021/12/31 10:20:13;;;;;;;0.00;0.00;;;13.70;99.90;;;;;;4929880;29;20246;-69
2021/12/31 10:22:45;;;;;;;0.00;0.00;;;13.70;99.90;;;;;;4929584;29;20207;-69
2021/12/31 10:25:20;;;;;;;0.00;0.00;;;13.60;99.90;;;;;;4923515;29;20290;-69
2021/12/31 10:27:47;;;;;;;0.00;0.00;;;13.60;99.90;;;;;;4932627;29;20211;-69
2021/12/31 10:30:22;;;;;;;0.00;0.00;;;13.60;99.90;;;;;;4931731;29;20223;-73
2021/12/31 10:32:50;;;;;;;0.00;0.00;;;13.70;99.90;;;;;;4939059;28;20217;-69
2021/12/31 10:35:20;;;;;;;0.00;0.00;;;13.80;99.90;;;;;;4929646;29;20614;-71
2021/12/31 10:37:49;;;;;;;0.00;0.00;;;13.80;99.90;;;;;;4944509;28;20230;-69
2021/12/31 10:40:27;;;;;;;0.00;0.00;;;13.80;99.90;;;;;;4929466;29;20203;-69
2021/12/31 10:43:11;;;;;;;0.00;0.00;;;13.80;99.90;;;;;;4932015;29;20241;-69
2021/12/31 10:45:39;;;;;;;0.00;0.00;;;13.80;99.90;;;;;;4927917;29;20243;-69
2021/12/31 10:48:09;;;;;;;0.00;0.00;;;13.80;99.90;;;;;;4927969;29;20203;-69
2021/12/31 10:50:37;;;;;;;0.00;0.00;;;13.80;99.90;;;;;;4923852;29;20231;-70
2021/12/31 10:53:10;;;;;;;0.10;0.10;;;13.70;99.90;;;;;;4925374;29;20207;-69
2021/12/31 10:55:40;;;;;;;0.00;0.00;;;13.70;99.90;;;;;;4922039;29;20217;-70
2021/12/31 10:58:11;;;;;;;0.00;0.00;;;13.70;99.90;;;;;;4929595;29;20211;-70
2021/12/31 11:00:40;;;;;;;0.00;0.00;;;13.70;99.90;;;;;;4931346;29;20211;-72
2021/12/31 11:03:09;;;;;;;0.10;0.10;;;13.60;99.90;;;;;;4929513;29;20229;-70
2021/12/31 11:05:37;;;;;;;0.00;0.00;;;13.60;99.90;;;;;;4929206;29;20645;-70
2021/12/31 11:08:07;;;;;;;0.00;0.00;;;13.60;99.90;;;;;;4924696;29;20210;-70
2021/12/31 11:10:37;;;;;;;0.00;0.00;;;13.60;99.90;;;;;;4929659;29;20258;-70
2021/12/31 11:13:10;;;;;;;0.00;0.00;;;13.60;99.90;;;;;;4923713;29;20207;-70
2021/12/31 11:15:38;;;;;;;0.10;0.10;;;13.60;99.90;;;;;;4928780;29;20278;-68
2021/12/31 11:18:05;;;;;;;0.00;0.00;;;13.60;99.90;;;;;;4928795;29;20200;-69
2021/12/31 11:20:35;;;;;;;0.00;0.00;;;13.60;99.90;;;;;;4932164;29;20258;-69
2021/12/31 11:23:02;;;;;;;0.00;0.00;;;13.60;99.90;;;;;;4949311;28;20199;-69
2021/12/31 11:25:30;;;;;;;0.00;0.00;;;13.60;99.90;;;;;;4933857;29;20215;-70
2021/12/31 11:27:59;;;;;;;0.00;0.00;;;13.70;99.90;;;;;;4935996;28;20231;-69
2021/12/31 11:30:29;;;;;;;0.00;0.00;;;13.70;99.90;;;;;;4932214;29;20318;-69
2021/12/31 11:33:17;;;;;;;0.10;0.10;;;13.70;99.90;;;;;;4931794;28;20219;-69
2021/12/31 11:35:59;;;;;;;0.10;0.10;;;13.70;99.90;;;;;;4914135;29;20218;-68
2021/12/31 11:38:50;;;;;;;0.00;0.00;;;13.80;99.90;;;;;;4933597;29;20203;-69
2021/12/31 11:41:22;;;;;;;0.00;0.00;;;13.80;99.90;;;;;;4918011;29;20242;-69
2021/12/31 11:44:10;;;;;;;0.00;0.00;;;;;;;;;;4929837;29;20302;-71
2021/12/31 11:46:40;;;;;;;0.00;0.00;;;13.80;99.90;;;;;;4933705;29;20199;-69
2021/12/31 11:49:20;;;;;;;0.00;0.00;;;13.80;99.90;;;;;;4934082;29;20206;-69
2021/12/31 11:52:01;;;;;;;0.00;0.00;;;13.80;99.90;;;;;;4931590;29;20231;-70
2021/12/31 11:54:29;;;;;;;0.00;0.00;;;13.80;99.90;;;;;;4929577;29;20203;-69
2021/12/31 11:57:01;;;;;;;0.00;0.00;;;13.70;99.90;;;;;;4934328;29;20211;-70
2021/12/31 11:59:30;;;;;;;0.00;0.00;;;13.70;99.90;;;;;;4929878;29;20199;-70
2021/12/31 12:02:07;;;;;;;0.00;0.00;;;13.70;99.90;;;;;;4931523;29;20231;-70
2021/12/31 12:04:36;;;;;;;0.00;0.00;;;13.70;99.90;;;;;;4931382;29;20210;-70
2021/12/31 12:07:06;;;;;;;0.00;0.00;;;13.70;99.90;;;;;;4933077;29;20199;-70
2021/12/31 12:10:12;;;;;;;0.00;0.00;;;13.70;99.90;;;;;;4931690;29;20227;-70
2021/12/31 12:12:40;;;;;;;0.00;0.00;;;13.70;99.90;;;;;;4930006;29;20207;-69
2021/12/31 12:15:29;;;;;;;0.00;0.00;;;13.70;99.90;;;;;;4930450;29;20210;-70
2021/12/31 12:18:00;;;;;;;0.00;0.00;;;13.70;99.90;;;;;;4927363;29;20218;-70
2021/12/31 12:20:42;;;;;;;0.00;0.00;;;13.70;99.90;;;;;;4931526;29;20188;-70
2021/12/31 12:23:24;;;;;;;0.00;0.00;;;13.70;99.90;;;;;;4947448;28;20203;-69
2021/12/31 12:25:52;;;;;;;0.10;0.10;;;13.70;99.90;;;;;;4945662;28;20204;-71
2021/12/31 12:28:21;;;;;;;0.00;0.00;;;13.80;99.90;;;;;;4930756;29;20195;-71
2021/12/31 12:31:04;;;;;;;0.00;0.00;;;13.80;99.90;;;;;;4926227;29;20224;-71
2021/12/31 12:33:35;;;;;;;0.03;0.03;;;13.80;99.90;;;;;;4928438;29;20267;-71
2021/12/31 12:36:03;;;;;;;0.10;0.10;;;13.90;99.90;;;;;;4930626;29;20278;-71
2021/12/31 12:38:34;;;;;;;0.10;0.10;;;13.90;99.90;;;;;;4929187;29;20199;-70
2021/12/31 12:41:09;;;;;;;0.00;0.00;;;13.90;99.90;;;;;;4930431;28;20215;-69
2021/12/31 12:43:37;;;;;;;0.00;0.00;;;13.90;99.90;;;;;;4931508;29;20202;-70
2021/12/31 12:46:07;;;;;;;0.00;0.00;;;13.90;99.90;;;;;;4928384;29;20287;-70
2021/12/31 12:48:37;;;;;;;0.00;0.00;;;14.00;99.90;;;;;;4931213;29;20199;-70
2021/12/31 12:51:07;;;;;;;0.00;0.00;;;14.00;99.90;;;;;;4928939;29;20237;-70
2021/12/31 12:53:37;;;;;;;0.00;0.00;;;14.00;99.90;;;;;;4935104;29;20209;-70
2021/12/31 12:56:10;;;;;;;0.00;0.00;;;;;;;;;;4947188;28;20664;-70
2021/12/31 12:58:39;;;;;;;0.00;0.00;;;;;;;;;;4931133;29;20199;-70
2021/12/31 13:01:07;;;;;;;0.10;0.10;;;;;;;;;;4932988;29;20706;-70